createdAt,value
2019-03-21T00:01:43.856Z,8.63
2019-03-21T00:04:14.477Z,8.95
2019-03-21T00:06:43.511Z,8.88
2019-03-21T00:09:15.805Z,9.95
2019-03-21T00:12:01.815Z,9.80
2019-03-21T00:14:44.123Z,8.70
2019-03-21T00:17:31.351Z,8.30
2019-03-21T00:20:01.215Z,9.90
2019-03-21T00:22:29.789Z,9.40
2019-03-21T00:25:00.358Z,9.10
2019-03-21T00:27:28.932Z,8.58
2019-03-21T00:29:57.756Z,9.15
2019-03-21T00:32:26.334Z,9.03
2019-03-21T00:34:54.901Z,9.38
2019-03-21T00:37:23.512Z,8.70
2019-03-21T00:39:52.897Z,8.50
2019-03-21T00:42:21.438Z,8.95
2019-03-21T00:44:50.880Z,8.50
2019-03-21T00:47:19.491Z,8.90
2019-03-21T00:49:48.058Z,9.45
2019-03-21T00:52:16.640Z,8.70
2019-03-21T00:54:45.242Z,9.55
2019-03-21T00:57:13.857Z,9.55
2019-03-21T00:59:42.926Z,9.35
2019-03-21T01:02:11.496Z,9.85
2019-03-21T01:04:40.097Z,9.80
2019-03-21T01:07:08.715Z,10.00
2019-03-21T01:09:37.361Z,10.45
2019-03-21T01:12:06.647Z,9.63
2019-03-21T01:14:35.535Z,10.10
2019-03-21T01:17:04.174Z,10.35
2019-03-21T01:19:33.445Z,9.65
2019-03-21T01:22:02.518Z,9.45
2019-03-21T01:24:31.104Z,10.63
2019-03-21T01:26:59.837Z,10.85
2019-03-21T01:29:28.457Z,10.00
2019-03-21T01:31:57.461Z,10.30
2019-03-21T01:34:26.036Z,9.60
2019-03-21T01:36:54.644Z,10.55
2019-03-21T01:39:23.218Z,10.32
2019-03-21T01:41:51.845Z,10.23
2019-03-21T01:44:20.467Z,9.98
2019-03-21T01:46:49.039Z,10.68
2019-03-21T01:49:17.608Z,10.72
2019-03-21T01:51:46.230Z,11.08
2019-03-21T01:54:14.800Z,11.25
2019-03-21T01:56:43.374Z,11.05
2019-03-21T01:59:11.944Z,10.35
2019-03-21T02:01:41.032Z,11.30
2019-03-21T02:04:09.599Z,11.20
2019-03-21T02:06:39.185Z,10.35
2019-03-21T02:09:08.612Z,11.57
2019-03-21T02:11:38.766Z,10.72
2019-03-21T02:14:07.559Z,11.57
2019-03-21T02:16:36.138Z,11.33
2019-03-21T02:19:04.847Z,11.50
2019-03-21T02:21:33.407Z,11.68
2019-03-21T02:24:01.969Z,11.63
2019-03-21T02:26:31.617Z,11.48
2019-03-21T02:29:01.200Z,12.43
2019-03-21T02:31:29.797Z,11.97
2019-03-21T02:33:58.433Z,11.85
2019-03-21T02:36:27.024Z,12.90
2019-03-21T02:38:55.599Z,12.28
2019-03-21T02:41:25.723Z,12.78
2019-03-21T02:43:54.572Z,12.43
2019-03-21T02:46:24.077Z,12.95
2019-03-21T02:48:52.719Z,12.68
2019-03-21T02:51:21.295Z,13.03
2019-03-21T02:53:49.859Z,13.13
2019-03-21T02:56:21.458Z,13.88
2019-03-21T02:58:50.024Z,12.53
2019-03-21T03:01:18.681Z,13.18
2019-03-21T03:03:47.387Z,13.85
2019-03-21T03:06:15.948Z,14.18
2019-03-21T03:08:44.531Z,13.35
2019-03-21T03:11:19.140Z,13.75
2019-03-21T03:13:49.757Z,14.47
2019-03-21T03:16:18.793Z,14.00
2019-03-21T03:18:47.379Z,14.47
2019-03-21T03:21:16.938Z,12.73
2019-03-21T03:23:45.566Z,13.80
2019-03-21T03:26:14.147Z,14.07
2019-03-21T03:28:47.291Z,14.28
2019-03-21T03:31:16.074Z,14.85
2019-03-21T03:33:45.065Z,14.53
2019-03-21T03:36:15.591Z,13.72
2019-03-21T03:38:44.249Z,15.23
2019-03-21T03:41:20.774Z,15.38
2019-03-21T03:43:49.409Z,16.10
2019-03-21T03:46:17.977Z,15.10
2019-03-21T03:48:46.575Z,14.43
2019-03-21T03:51:15.140Z,14.80
2019-03-21T03:53:43.727Z,15.03
2019-03-21T03:56:13.855Z,15.00
2019-03-21T03:58:57.432Z,15.65
2019-03-21T04:01:26.088Z,14.90
2019-03-21T04:03:54.727Z,15.90
2019-03-21T04:06:23.295Z,16.40
2019-03-21T04:08:51.959Z,16.25
2019-03-21T04:11:21.548Z,16.20
2019-03-21T04:13:52.100Z,16.40
2019-03-21T04:16:21.692Z,16.52
2019-03-21T04:18:50.270Z,15.50
2019-03-21T04:21:18.862Z,15.98
2019-03-21T04:23:47.437Z,16.10
2019-03-21T04:26:28.051Z,15.95
2019-03-21T04:28:56.962Z,15.60
2019-03-21T04:31:25.541Z,16.60
2019-03-21T04:33:57.597Z,15.85
2019-03-21T04:36:26.182Z,16.10
2019-03-21T04:38:54.794Z,16.45
2019-03-21T04:41:23.377Z,16.97
2019-03-21T04:43:51.931Z,17.17
2019-03-21T04:46:20.649Z,16.27
2019-03-21T04:48:49.214Z,16.37
2019-03-21T04:51:17.800Z,15.08
2019-03-21T04:53:46.779Z,15.75
2019-03-21T04:56:15.395Z,15.00
2019-03-21T04:58:43.972Z,15.83
2019-03-21T05:01:12.635Z,16.02
2019-03-21T05:03:41.238Z,15.75
2019-03-21T05:06:10.207Z,14.70
2019-03-21T05:08:39.687Z,16.50
2019-03-21T05:11:08.273Z,15.00
2019-03-21T05:13:36.844Z,16.90
2019-03-21T05:16:14.332Z,16.62
2019-03-21T05:18:56.511Z,15.95
2019-03-21T05:21:25.273Z,16.60
2019-03-21T05:23:53.833Z,18.00
2019-03-21T05:26:22.453Z,17.10
2019-03-21T05:28:51.172Z,17.92
2019-03-21T05:31:25.276Z,17.05
2019-03-21T05:33:53.863Z,17.00
2019-03-21T05:36:22.455Z,16.97
2019-03-21T05:38:51.035Z,17.05
2019-03-21T05:41:21.664Z,17.05
2019-03-21T05:43:53.540Z,16.67
2019-03-21T05:46:26.473Z,17.30
2019-03-21T05:48:52.377Z,16.95
2019-03-21T05:51:21.351Z,16.75
2019-03-21T05:53:49.923Z,15.85
2019-03-21T05:56:18.543Z,16.05
2019-03-21T05:58:48.042Z,15.53
2019-03-21T06:01:16.917Z,16.97
2019-03-21T06:03:49.669Z,16.95
2019-03-21T06:06:30.293Z,17.48
2019-03-21T06:08:58.892Z,17.55
2019-03-21T06:11:28.017Z,17.20
2019-03-21T06:13:56.591Z,16.23
2019-03-21T06:16:25.605Z,17.17
2019-03-21T06:18:57.252Z,17.25
2019-03-21T06:22:00.585Z,18.10
2019-03-21T06:24:35.156Z,16.52
2019-03-21T06:27:28.675Z,16.42
2019-03-21T06:29:57.548Z,17.20
2019-03-21T06:32:27.733Z,17.17
2019-03-21T06:34:57.845Z,17.60
2019-03-21T06:37:28.648Z,17.05
2019-03-21T06:39:57.562Z,16.80
2019-03-21T06:42:26.504Z,16.52
2019-03-21T06:44:55.196Z,16.97
2019-03-21T06:47:25.766Z,17.05
2019-03-21T06:49:54.378Z,17.42
2019-03-21T06:52:23.993Z,16.67
2019-03-21T06:54:52.555Z,16.02
2019-03-21T06:57:22.594Z,17.50
2019-03-21T06:59:51.179Z,16.32
2019-03-21T07:02:19.852Z,16.40
2019-03-21T07:04:48.495Z,16.95
2019-03-21T07:07:17.126Z,16.30
2019-03-21T07:09:45.680Z,17.10
2019-03-21T07:12:14.317Z,17.17
2019-03-21T07:14:43.273Z,17.20
2019-03-21T07:17:12.263Z,17.70
2019-03-21T07:19:40.839Z,18.23
2019-03-21T07:22:09.419Z,17.65
2019-03-21T07:24:38.442Z,17.10
2019-03-21T07:27:07.085Z,17.25
2019-03-21T07:29:35.676Z,16.42
2019-03-21T07:32:04.264Z,17.55
2019-03-21T07:34:32.856Z,17.40
2019-03-21T07:37:01.450Z,17.10
2019-03-21T07:39:30.996Z,18.40
2019-03-21T07:42:01.364Z,17.52
2019-03-21T07:44:30.658Z,17.65
2019-03-21T07:46:59.235Z,18.32
2019-03-21T07:49:27.829Z,17.57
2019-03-21T07:51:57.842Z,17.65
2019-03-21T07:54:26.460Z,17.60
2019-03-21T07:56:55.042Z,17.02
2019-03-21T07:59:23.617Z,18.27
2019-03-21T08:01:52.236Z,17.52
2019-03-21T08:04:20.820Z,16.67
2019-03-21T08:06:50.297Z,18.05
2019-03-21T08:09:18.958Z,17.82
2019-03-21T08:11:47.559Z,16.93
2019-03-21T08:14:16.184Z,16.85
2019-03-21T08:16:44.759Z,17.17
2019-03-21T08:19:13.346Z,17.52
2019-03-21T08:21:41.916Z,15.68
2019-03-21T08:24:10.513Z,16.02
2019-03-21T08:26:39.117Z,16.62
2019-03-21T08:29:07.829Z,15.65
2019-03-21T08:31:36.385Z,15.75
2019-03-21T08:34:05.030Z,15.63
2019-03-21T08:36:33.704Z,15.43
2019-03-21T08:39:02.308Z,15.68
2019-03-21T08:41:30.889Z,15.85
2019-03-21T08:43:59.475Z,15.23
2019-03-21T08:46:28.049Z,16.07
2019-03-21T08:48:56.639Z,15.48
2019-03-21T08:51:25.309Z,13.90
2019-03-21T08:53:53.972Z,13.70
2019-03-21T08:56:22.628Z,13.62
2019-03-21T08:58:51.204Z,13.18
2019-03-21T09:01:20.100Z,14.40
2019-03-21T09:03:48.733Z,13.22
2019-03-21T09:06:17.323Z,12.85
2019-03-21T09:08:45.953Z,12.35
2019-03-21T09:11:15.547Z,13.55
2019-03-21T09:13:44.131Z,12.55
2019-03-21T09:16:12.768Z,13.38
2019-03-21T09:18:41.335Z,12.58
2019-03-21T09:21:19.189Z,12.03
2019-03-21T09:23:40.152Z,11.30
2019-03-21T09:26:08.822Z,12.95
2019-03-21T09:28:37.397Z,11.95
2019-03-21T09:31:06.007Z,12.55
2019-03-21T09:33:34.573Z,13.00
2019-03-21T09:36:03.159Z,12.07
2019-03-21T09:38:31.763Z,11.57
2019-03-21T09:41:00.436Z,11.57
2019-03-21T09:43:29.012Z,11.03
2019-03-21T09:45:57.619Z,12.15
2019-03-21T09:48:26.203Z,11.25
2019-03-21T09:50:54.801Z,11.30
2019-03-21T09:53:23.378Z,11.53
2019-03-21T09:55:52.309Z,10.25
2019-03-21T09:58:20.879Z,11.08
2019-03-21T10:00:49.860Z,10.08
2019-03-21T10:03:18.478Z,9.50
2019-03-21T10:05:46.997Z,9.53
2019-03-21T10:08:15.615Z,9.50
2019-03-21T10:10:44.204Z,9.70
2019-03-21T10:13:14.455Z,10.75
2019-03-21T10:15:43.139Z,13.45
2019-03-21T10:18:11.761Z,16.23
2019-03-21T10:20:40.359Z,16.82
2019-03-21T10:23:09.001Z,17.57
2019-03-21T10:25:37.939Z,16.85
2019-03-21T10:28:06.484Z,15.58
2019-03-21T10:30:42.368Z,16.65
2019-03-21T10:33:12.972Z,14.23
2019-03-21T10:35:41.637Z,14.85
2019-03-21T10:38:10.686Z,13.65
2019-03-21T10:40:39.808Z,12.07
2019-03-21T10:43:10.393Z,11.25
2019-03-21T10:45:38.874Z,9.45
2019-03-21T10:48:07.713Z,10.18
2019-03-21T10:50:37.830Z,8.50
2019-03-21T10:53:09.419Z,8.75
2019-03-21T10:55:39.249Z,8.40
2019-03-21T10:58:08.361Z,10.08
2019-03-21T11:00:37.099Z,11.25
2019-03-21T11:03:06.052Z,11.30
2019-03-21T11:05:35.361Z,11.18
2019-03-21T11:08:04.682Z,12.47
2019-03-21T11:10:33.287Z,12.73
2019-03-21T11:13:01.864Z,11.03
2019-03-21T11:15:30.572Z,11.78
2019-03-21T11:17:59.200Z,9.68
2019-03-21T11:20:32.316Z,10.15
2019-03-21T11:23:00.957Z,9.43
2019-03-21T11:25:30.601Z,8.85
2019-03-21T11:27:59.318Z,8.33
2019-03-21T11:30:38.751Z,8.85
2019-03-21T11:33:07.660Z,9.20
2019-03-21T11:35:36.643Z,8.68
2019-03-21T11:38:06.498Z,8.35
2019-03-21T11:40:35.203Z,9.08
2019-03-21T11:43:05.900Z,9.25
2019-03-21T11:45:34.548Z,9.55
2019-03-21T11:48:03.618Z,9.08
2019-03-21T11:50:32.184Z,10.43
2019-03-21T11:53:00.828Z,9.65
2019-03-21T11:55:29.572Z,10.58
2019-03-21T11:57:58.143Z,10.10
2019-03-21T12:00:28.502Z,10.88
2019-03-21T12:02:57.140Z,10.70
2019-03-21T12:05:25.712Z,10.55
2019-03-21T12:07:54.281Z,11.03
2019-03-21T12:10:22.884Z,9.75
2019-03-21T12:12:51.496Z,9.63
2019-03-21T12:15:20.048Z,10.75
2019-03-21T12:17:48.649Z,8.73
2019-03-21T12:20:26.224Z,8.00
2019-03-21T12:22:55.280Z,7.60
2019-03-21T12:25:23.866Z,7.55
2019-03-21T12:27:52.464Z,8.20
2019-03-21T12:30:36.134Z,9.38
2019-03-21T12:33:05.620Z,9.43
2019-03-21T12:35:34.359Z,9.20
2019-03-21T12:38:03.026Z,8.98
2019-03-21T12:40:32.060Z,8.88
2019-03-21T12:43:00.635Z,9.75
2019-03-21T12:45:29.250Z,8.10
2019-03-21T12:47:57.861Z,9.23
2019-03-21T12:50:26.437Z,8.43
2019-03-21T12:52:55.013Z,7.58
2019-03-21T12:55:23.629Z,7.65
2019-03-21T12:57:52.175Z,7.40
2019-03-21T13:00:38.407Z,7.80
2019-03-21T13:03:07.140Z,7.97
2019-03-21T13:05:35.863Z,8.88
2019-03-21T13:08:04.536Z,8.43
2019-03-21T13:10:33.179Z,7.58
2019-03-21T13:13:02.187Z,7.67
2019-03-21T13:15:30.862Z,7.45
2019-03-21T13:18:00.660Z,6.60
2019-03-21T13:20:29.460Z,6.37
2019-03-21T13:22:58.109Z,5.85
2019-03-21T13:25:26.684Z,5.55
2019-03-21T13:27:55.286Z,5.33
2019-03-21T13:30:23.985Z,6.47
2019-03-21T13:32:52.620Z,5.75
2019-03-21T13:35:31.960Z,5.90
2019-03-21T13:37:53.889Z,6.25
2019-03-21T13:40:21.864Z,5.45
2019-03-21T13:42:50.425Z,5.65
2019-03-21T13:45:19.072Z,5.70
2019-03-21T13:47:47.706Z,5.15
2019-03-21T13:50:16.329Z,5.80
2019-03-21T13:52:44.899Z,6.03
2019-03-21T13:55:13.734Z,6.45
2019-03-21T13:57:42.303Z,6.42
2019-03-21T14:00:19.383Z,7.03
2019-03-21T14:02:47.948Z,6.55
2019-03-21T14:05:16.651Z,6.83
2019-03-21T14:07:45.346Z,6.28
2019-03-21T14:10:14.046Z,5.60
2019-03-21T14:12:42.635Z,5.80
2019-03-21T14:15:15.962Z,5.55
2019-03-21T14:17:44.592Z,5.80
2019-03-21T14:20:15.095Z,5.72
2019-03-21T14:22:43.793Z,5.72
2019-03-21T14:25:12.924Z,6.03
2019-03-21T14:27:41.505Z,5.78
2019-03-21T14:30:17.116Z,5.50
2019-03-21T14:32:45.764Z,5.90
2019-03-21T14:35:14.770Z,5.83
2019-03-21T14:37:43.422Z,5.45
2019-03-21T14:40:14.160Z,6.15
2019-03-21T14:42:43.233Z,5.08
2019-03-21T14:45:16.812Z,5.25
2019-03-21T14:47:45.398Z,4.53
2019-03-21T14:50:18.797Z,4.55
2019-03-21T14:52:47.361Z,4.85
2019-03-21T14:55:16.383Z,4.47
2019-03-21T14:57:45.078Z,4.55
2019-03-21T15:00:16.466Z,4.60
2019-03-21T15:02:45.177Z,4.30
2019-03-21T15:05:15.506Z,4.75
2019-03-21T15:07:44.085Z,5.35
2019-03-21T15:10:15.783Z,5.87
2019-03-21T15:12:44.345Z,6.42
2019-03-21T15:15:16.446Z,6.45
2019-03-21T15:17:45.172Z,7.87
2019-03-21T15:20:18.017Z,7.67
2019-03-21T15:22:46.647Z,7.20
2019-03-21T15:25:15.363Z,8.00
2019-03-21T15:27:44.028Z,8.15
2019-03-21T15:30:15.586Z,5.87
2019-03-21T15:32:44.415Z,4.05
2019-03-21T15:35:14.031Z,4.50
2019-03-21T15:37:42.613Z,4.42
2019-03-21T15:40:15.707Z,4.60
2019-03-21T15:42:44.394Z,5.10
2019-03-21T15:45:22.821Z,4.70
2019-03-21T15:47:47.957Z,5.35
2019-03-21T15:50:22.970Z,4.85
2019-03-21T15:52:51.525Z,4.95
2019-03-21T15:55:20.103Z,4.60
2019-03-21T15:57:48.705Z,5.37
2019-03-21T16:00:20.356Z,5.37
2019-03-21T16:02:48.931Z,5.53
2019-03-21T16:05:17.508Z,5.80
2019-03-21T16:07:46.118Z,5.97
2019-03-21T16:10:14.769Z,5.83
2019-03-21T16:12:43.372Z,7.03
2019-03-21T16:15:11.949Z,7.42
2019-03-21T16:17:40.846Z,7.85
2019-03-21T16:20:09.667Z,8.28
2019-03-21T16:22:38.312Z,8.85
2019-03-21T16:25:08.437Z,9.33
2019-03-21T16:27:37.628Z,9.15
2019-03-21T16:30:13.043Z,9.68
2019-03-21T16:32:41.625Z,9.05
2019-03-21T16:35:11.178Z,9.30
2019-03-21T16:37:39.763Z,9.93
2019-03-21T16:40:13.251Z,9.73
2019-03-21T16:42:42.008Z,11.18
2019-03-21T16:45:12.431Z,10.23
2019-03-21T16:47:42.034Z,11.38
2019-03-21T16:50:15.522Z,11.57
2019-03-21T16:52:44.092Z,12.13
2019-03-21T16:55:14.945Z,12.53
2019-03-21T16:57:43.660Z,13.25
2019-03-21T17:00:22.211Z,13.53
2019-03-21T17:02:50.888Z,13.58
2019-03-21T17:05:22.182Z,13.78
2019-03-21T17:07:50.044Z,14.87
2019-03-21T17:10:18.745Z,15.20
2019-03-21T17:12:47.633Z,14.90
2019-03-21T17:15:16.279Z,15.13
2019-03-21T17:17:44.855Z,15.45
2019-03-21T17:20:13.786Z,15.08
2019-03-21T17:22:42.387Z,16.67
2019-03-21T17:25:12.729Z,17.73
2019-03-21T17:27:41.339Z,17.57
2019-03-21T17:30:12.993Z,18.67
2019-03-21T17:32:41.904Z,18.13
2019-03-21T17:35:11.321Z,18.82
2019-03-21T17:37:45.710Z,19.20
2019-03-21T17:40:15.458Z,19.80
2019-03-21T17:42:44.087Z,19.52
2019-03-21T17:45:14.999Z,17.40
2019-03-21T17:47:44.047Z,18.57
2019-03-21T17:50:15.012Z,17.32
2019-03-21T17:52:43.752Z,18.23
2019-03-21T17:55:12.474Z,18.52
2019-03-21T17:57:41.052Z,19.67
2019-03-21T18:00:12.735Z,18.77
2019-03-21T18:02:45.548Z,19.23
2019-03-21T18:05:14.181Z,19.95
2019-03-21T18:07:42.783Z,18.65
2019-03-21T18:10:25.606Z,19.23
2019-03-21T18:12:54.247Z,20.52
2019-03-21T18:15:22.841Z,19.52
2019-03-21T18:17:51.619Z,18.95
2019-03-21T18:20:20.197Z,18.73
2019-03-21T18:22:48.779Z,18.82
2019-03-21T18:25:17.432Z,19.02
2019-03-21T18:27:46.044Z,17.55
2019-03-21T18:30:15.647Z,20.30
2019-03-21T18:32:44.619Z,20.35
2019-03-21T18:35:13.356Z,20.15
2019-03-21T18:37:41.944Z,20.70
2019-03-21T18:40:11.762Z,20.88
2019-03-21T18:42:40.820Z,20.77
2019-03-21T18:45:12.497Z,20.15
2019-03-21T18:47:41.440Z,21.77
2019-03-21T18:50:12.583Z,21.73
2019-03-21T18:52:41.168Z,22.80
2019-03-21T18:55:10.261Z,22.62
2019-03-21T18:57:38.815Z,23.75
2019-03-21T19:00:10.585Z,22.30
2019-03-21T19:02:39.220Z,21.87
2019-03-21T19:05:08.426Z,23.25
2019-03-21T19:07:37.054Z,21.90
2019-03-21T19:10:09.252Z,21.15
2019-03-21T19:12:37.883Z,21.42
2019-03-21T19:15:11.984Z,22.60
2019-03-21T19:17:40.932Z,20.80
2019-03-21T19:20:15.464Z,21.68
2019-03-21T19:22:44.558Z,21.73
2019-03-21T19:25:19.028Z,21.95
2019-03-21T19:27:44.271Z,22.62
2019-03-21T19:30:20.474Z,22.82
2019-03-21T19:32:49.720Z,24.05
2019-03-21T19:35:19.692Z,23.87
2019-03-21T19:37:48.426Z,24.82
2019-03-21T19:40:20.400Z,24.52
2019-03-21T19:42:49.238Z,24.82
2019-03-21T19:45:19.643Z,24.65
2019-03-21T19:47:49.153Z,23.02
2019-03-21T19:50:20.564Z,24.85
2019-03-21T19:52:54.899Z,24.10
2019-03-21T19:55:30.963Z,24.70
2019-03-21T19:57:55.774Z,24.85
2019-03-21T20:00:24.597Z,24.87
2019-03-21T20:02:53.332Z,25.08
2019-03-21T20:05:21.970Z,26.42
2019-03-21T20:07:50.664Z,25.82
2019-03-21T20:10:21.574Z,25.45
2019-03-21T20:12:50.188Z,26.60
2019-03-21T20:15:19.927Z,26.97
2019-03-21T20:17:48.591Z,27.35
2019-03-21T20:20:18.002Z,27.42
2019-03-21T20:22:46.669Z,27.35
2019-03-21T20:25:15.732Z,26.37
2019-03-21T20:27:46.298Z,26.00
2019-03-21T20:30:20.864Z,25.62
2019-03-21T20:32:49.555Z,27.80
2019-03-21T20:35:18.232Z,27.05
2019-03-21T20:37:46.878Z,25.77
2019-03-21T20:40:19.561Z,24.87
2019-03-21T20:42:48.140Z,24.47
2019-03-21T20:45:20.437Z,27.20
2019-03-21T20:47:49.076Z,26.17
2019-03-21T20:50:17.997Z,26.50
2019-03-21T20:52:46.629Z,25.75
2019-03-21T20:55:15.428Z,26.02
2019-03-21T20:57:44.086Z,25.65
2019-03-21T21:00:21.199Z,25.48
2019-03-21T21:02:50.506Z,26.37
2019-03-21T21:05:19.100Z,26.25
2019-03-21T21:07:48.099Z,26.73
2019-03-21T21:10:17.074Z,25.57
2019-03-21T21:12:46.674Z,25.75
2019-03-21T21:15:16.546Z,26.10
2019-03-21T21:17:45.220Z,27.27
2019-03-21T21:20:18.522Z,25.82
2019-03-21T21:22:47.162Z,25.97
2019-03-21T21:25:15.859Z,26.37
2019-03-21T21:27:49.969Z,25.08
2019-03-21T21:30:19.344Z,25.52
2019-03-21T21:32:47.990Z,24.52
2019-03-21T21:35:16.684Z,25.40
2019-03-21T21:37:45.384Z,25.72
2019-03-21T21:40:15.534Z,26.23
2019-03-21T21:42:44.132Z,25.90
2019-03-21T21:45:15.952Z,25.50
2019-03-21T21:47:44.803Z,25.55
2019-03-21T21:50:14.756Z,26.15
2019-03-21T21:52:43.766Z,26.77
2019-03-21T21:55:12.531Z,26.55
2019-03-21T21:57:41.186Z,27.00
2019-03-21T22:00:13.100Z,27.45
2019-03-21T22:02:41.721Z,26.68
2019-03-21T22:05:11.417Z,26.33
2019-03-21T22:07:40.948Z,26.87
2019-03-21T22:10:10.808Z,26.07
2019-03-21T22:12:39.514Z,26.73
2019-03-21T22:15:10.711Z,27.42
2019-03-21T22:17:39.297Z,27.65
2019-03-21T22:20:09.997Z,25.92
2019-03-21T22:22:38.768Z,25.75
2019-03-21T22:25:09.077Z,26.40
2019-03-21T22:27:37.781Z,26.25
2019-03-21T22:30:12.149Z,26.30
2019-03-21T22:32:40.794Z,27.20
2019-03-21T22:35:10.028Z,25.75
2019-03-21T22:37:38.620Z,26.10
2019-03-21T22:40:11.872Z,25.48
2019-03-21T22:42:40.562Z,25.17
2019-03-21T22:45:15.263Z,26.77
2019-03-21T22:47:43.916Z,26.90
2019-03-21T22:50:17.040Z,24.90
2019-03-21T22:52:46.189Z,25.65
2019-03-21T22:55:14.921Z,24.47
2019-03-21T22:57:44.069Z,25.68
2019-03-21T23:00:15.725Z,26.45
2019-03-21T23:02:44.546Z,27.50
2019-03-21T23:05:13.608Z,26.17
2019-03-21T23:07:42.244Z,25.60
2019-03-21T23:10:11.057Z,26.37
2019-03-21T23:12:39.726Z,28.45
2019-03-21T23:15:10.180Z,26.15
2019-03-21T23:17:39.186Z,30.88
2019-03-21T23:20:13.522Z,27.13
2019-03-21T23:22:42.084Z,26.85
2019-03-21T23:25:12.408Z,25.27
2019-03-21T23:27:41.014Z,25.82
2019-03-21T23:30:12.718Z,26.02
2019-03-21T23:32:41.317Z,26.30
2019-03-21T23:35:10.135Z,25.55
2019-03-21T23:37:38.787Z,26.12
2019-03-21T23:40:09.714Z,26.48
2019-03-21T23:42:38.296Z,26.87
2019-03-21T23:45:08.742Z,26.60
2019-03-21T23:47:37.319Z,27.58
2019-03-21T23:50:08.273Z,27.35
2019-03-21T23:52:36.845Z,27.70
2019-03-21T23:55:07.542Z,28.15
2019-03-21T23:57:36.249Z,28.12
